Time;durP1;ratioP1;P1;durP2;ratioP2;P2;SDS_P1;SDS_P2;PMS_P1;PMS_P2;Temp;Humidity;BMP_temperature;BMP_pressure;BME280_temperature;BME280_humidity;BME280_pressure;Samples;Min_cycle;Max_cycle;Signal;HPM_P1;HPM_P2
2021/12/12 00:02:20;;;;;;;13.93;4.25;;;2.10;99.90;;;;;;5035676;28;20057;-84
2021/12/12 00:04:48;;;;;;;15.60;4.33;;;2.10;99.90;;;;;;5062829;28;20443;-84
2021/12/12 00:07:21;;;;;;;17.20;5.35;;;2.10;99.90;;;;;;5035841;28;20036;-84
2021/12/12 00:09:51;;;;;;;8.95;4.20;;;2.10;99.90;;;;;;5035839;28;20082;-83
2021/12/12 00:12:28;;;;;;;12.60;4.25;;;2.10;99.90;;;;;;5030020;28;20037;-84
2021/12/12 00:14:56;;;;;;;13.25;4.65;;;2.10;99.90;;;;;;5065067;28;20461;-84
2021/12/12 00:17:24;;;;;;;10.90;4.25;;;2.10;99.90;;;;;;5035013;28;20044;-84
2021/12/12 00:19:50;;;;;;;7.88;3.85;;;2.10;99.90;;;;;;5053302;28;20044;-84
2021/12/12 00:22:21;;;;;;;12.35;3.88;;;2.20;99.90;;;;;;5035839;28;20025;-84
2021/12/12 00:24:47;;;;;;;17.38;4.95;;;2.20;99.90;;;;;;5046629;28;20025;-84
2021/12/12 00:27:13;;;;;;;17.25;5.28;;;2.10;99.90;;;;;;5040262;28;20384;-84
2021/12/12 00:29:39;;;;;;;15.38;4.82;;;2.10;99.90;;;;;;5062885;28;20025;-83
2021/12/12 00:32:10;;;;;;;10.55;4.22;;;2.20;99.90;;;;;;5034432;28;20401;-84
2021/12/12 00:34:50;;;;;;;14.13;4.28;;;2.20;99.90;;;;;;5044836;28;20573;-84
2021/12/12 00:37:16;;;;;;;18.03;4.30;;;2.20;99.90;;;;;;5036803;28;20037;-83
2021/12/12 00:39:50;;;;;;;16.15;4.03;;;2.20;99.90;;;;;;5045569;28;20403;-83
2021/12/12 00:42:19;;;;;;;10.02;4.32;;;2.20;99.90;;;;;;5054763;28;20016;-83
2021/12/12 00:44:49;;;;;;;7.80;3.60;;;2.20;99.90;;;;;;5039146;28;20025;-83
2021/12/12 00:47:16;;;;;;;13.55;5.50;;;2.20;99.90;;;;;;5023176;28;20120;-83
2021/12/12 00:49:42;;;;;;;23.02;4.18;;;2.20;99.90;;;;;;5065994;28;20028;-84
2021/12/12 00:52:12;;;;;;;10.75;4.00;;;2.20;99.90;;;;;;5039549;28;20040;-83
2021/12/12 00:54:40;;;;;;;18.17;4.77;;;2.20;99.90;;;;;;5063176;28;20033;-83
2021/12/12 00:57:09;;;;;;;11.27;4.30;;;2.20;99.90;;;;;;5054808;28;20336;-83
2021/12/12 00:59:36;;;;;;;9.80;3.85;;;2.20;99.90;;;;;;5042007;28;20072;-83
2021/12/12 01:02:08;;;;;;;14.93;4.78;;;2.20;99.90;;;;;;5054768;28;20036;-83
2021/12/12 01:04:42;;;;;;;7.63;3.10;;;2.20;99.90;;;;;;5045665;28;20117;-83
2021/12/12 01:07:12;;;;;;;9.30;3.58;;;2.20;99.90;;;;;;5051280;28;20029;-83
2021/12/12 01:09:46;;;;;;;12.05;4.20;;;2.20;99.90;;;;;;5018655;28;20031;-83
2021/12/12 01:12:16;;;;;;;10.23;3.92;;;2.20;99.90;;;;;;5035970;28;20084;-83
2021/12/12 01:14:46;;;;;;;13.60;4.68;;;2.20;99.90;;;;;;5019976;28;20052;-83
2021/12/12 01:17:30;;;;;;;11.70;3.58;;;2.20;99.90;;;;;;5037859;28;20040;-83
2021/12/12 01:20:11;;;;;;;9.95;3.58;;;2.10;99.90;;;;;;5035814;28;20040;-83
2021/12/12 01:22:38;;;;;;;11.02;3.47;;;2.10;99.90;;;;;;5056714;28;20032;-83
2021/12/12 01:25:18;;;;;;;8.15;3.40;;;2.10;99.90;;;;;;5049441;28;20021;-83
2021/12/12 01:27:44;;;;;;;12.07;4.22;;;2.00;99.90;;;;;;5034787;28;20056;-83
2021/12/12 01:30:12;;;;;;;8.50;3.10;;;2.00;99.90;;;;;;5034453;28;20426;-83
2021/12/12 01:32:41;;;;;;;6.07;3.20;;;2.00;99.90;;;;;;5034652;28;20044;-83
2021/12/12 01:35:14;;;;;;;9.30;3.67;;;2.10;99.90;;;;;;5023976;28;20035;-84
2021/12/12 01:37:50;;;;;;;11.63;3.38;;;2.10;99.90;;;;;;5055004;28;20045;-83
2021/12/12 01:40:17;;;;;;;8.10;3.10;;;2.10;99.90;;;;;;5042827;28;20540;-84
2021/12/12 01:42:54;;;;;;;10.35;3.38;;;2.00;99.90;;;;;;5070053;28;20079;-84
2021/12/12 01:45:25;;;;;;;11.90;2.90;;;2.00;99.90;;;;;;5074488;28;20403;-84
2021/12/12 01:47:56;;;;;;;11.57;3.38;;;2.00;99.90;;;;;;5053403;28;20029;-84
2021/12/12 01:50:29;;;;;;;12.68;2.97;;;2.00;99.90;;;;;;5049173;28;20033;-84
2021/12/12 01:52:56;;;;;;;5.47;2.80;;;2.00;99.90;;;;;;5025934;28;20037;-82
2021/12/12 01:55:32;;;;;;;9.27;3.20;;;2.00;99.90;;;;;;5053938;28;20502;-83
2021/12/12 01:58:01;;;;;;;12.05;3.47;;;1.90;99.90;;;;;;5042848;28;20035;-83
2021/12/12 02:00:32;;;;;;;8.27;2.70;;;1.90;99.90;;;;;;5034563;28;20448;-83
2021/12/12 02:02:59;;;;;;;10.32;2.85;;;1.90;99.90;;;;;;5019958;28;20029;-83
2021/12/12 02:05:27;;;;;;;7.55;3.33;;;1.90;99.90;;;;;;5044744;28;20032;-83
2021/12/12 02:08:00;;;;;;;8.77;2.97;;;1.90;99.90;;;;;;5051281;28;20041;-83
2021/12/12 02:10:35;;;;;;;7.68;2.90;;;1.90;99.90;;;;;;5066659;28;20483;-83
2021/12/12 02:13:11;;;;;;;9.00;3.08;;;1.80;99.90;;;;;;5050908;28;20033;-83
2021/12/12 02:15:38;;;;;;;10.77;2.88;;;1.80;99.90;;;;;;5048297;28;20044;-83
2021/12/12 02:18:09;;;;;;;8.82;3.38;;;1.80;99.90;;;;;;5040936;28;20036;-83
2021/12/12 02:20:43;;;;;;;7.47;2.60;;;1.80;99.90;;;;;;5050222;28;20040;-83
2021/12/12 02:23:31;;;;;;;6.07;2.70;;;1.70;99.90;;;;;;5034849;28;20027;-83
2021/12/12 02:37:01;;;;;;;9.95;3.20;;;1.50;99.90;;;;;;5029938;28;20065;-83
2021/12/12 02:39:27;;;;;;;13.02;2.67;;;1.50;99.90;;;;;;5054056;28;20021;-83
2021/12/12 02:41:57;;;;;;;6.68;2.40;;;1.50;99.90;;;;;;5032919;28;20037;-83
2021/12/12 02:44:28;;;;;;;10.15;2.20;;;1.40;99.90;;;;;;5051482;28;20029;-82
2021/12/12 02:46:58;;;;;;;14.00;3.10;;;1.50;99.90;;;;;;5052274;28;20032;-83
2021/12/12 02:50:13;;;;;;;17.40;2.55;;;1.40;99.90;;;;;;5057506;28;20025;-83
2021/12/12 02:52:15;;;;;;;8.98;2.50;;;1.40;99.90;;;;;;5036558;28;20052;-83
2021/12/12 02:54:42;;;;;;;9.17;2.23;;;1.40;99.90;;;;;;5034218;28;20067;-83
2021/12/12 02:57:08;;;;;;;7.70;2.28;;;1.40;99.90;;;;;;5067073;28;20510;-83
2021/12/12 02:59:35;;;;;;;14.90;2.17;;;1.40;99.90;;;;;;5038958;28;20020;-83
2021/12/12 03:02:10;;;;;;;5.47;1.92;;;1.40;99.90;;;;;;5063908;28;20029;-83
2021/12/12 03:04:36;;;;;;;7.63;2.20;;;1.40;99.90;;;;;;5041315;28;20078;-83
2021/12/12 03:07:06;;;;;;;9.77;2.58;;;1.40;99.90;;;;;;5047578;28;20033;-83
2021/12/12 03:09:38;;;;;;;4.70;2.08;;;1.50;99.90;;;;;;5032750;28;20025;-83
2021/12/12 03:12:30;;;;;;;7.32;2.60;;;1.40;99.90;;;;;;5063882;28;20051;-83
2021/12/12 03:14:58;;;;;;;7.15;2.22;;;1.40;99.90;;;;;;5068764;28;20021;-84
2021/12/12 03:17:24;;;;;;;5.93;2.30;;;1.40;99.90;;;;;;5067800;28;20432;-84
2021/12/12 03:19:56;;;;;;;11.65;2.75;;;1.30;99.90;;;;;;5070677;28;20085;-84
2021/12/12 03:22:24;;;;;;;7.53;2.08;;;1.30;99.90;;;;;;5054028;28;20025;-83
2021/12/12 03:24:51;;;;;;;7.10;2.00;;;1.30;99.90;;;;;;5046049;28;20464;-83
2021/12/12 03:27:19;;;;;;;7.22;2.20;;;1.20;99.90;;;;;;5043688;28;20048;-84
2021/12/12 03:29:48;;;;;;;7.28;2.78;;;1.20;99.90;;;;;;5066579;28;20037;-83
2021/12/12 03:32:20;;;;;;;6.28;1.83;;;1.20;99.90;;;;;;5042775;28;20033;-83
2021/12/12 03:34:50;;;;;;;4.93;2.33;;;1.20;99.90;;;;;;5055826;28;20068;-83
2021/12/12 03:37:18;;;;;;;7.63;2.03;;;1.20;99.90;;;;;;5035041;28;20040;-83
2021/12/12 03:39:48;;;;;;;5.10;1.60;;;1.10;99.90;;;;;;5035006;28;20487;-84
2021/12/12 03:42:18;;;;;;;14.18;2.75;;;1.10;99.90;;;;;;5051608;28;20071;-83
2021/12/12 03:44:46;;;;;;;10.65;2.22;;;1.10;99.90;;;;;;5049963;28;20085;-83
2021/12/12 03:47:16;;;;;;;9.48;2.28;;;1.10;99.90;;;;;;5037759;28;20056;-83
2021/12/12 03:49:42;;;;;;;7.70;1.80;;;1.10;99.90;;;;;;5051598;28;20064;-84
2021/12/12 03:52:10;;;;;;;8.05;1.98;;;1.10;99.90;;;;;;5065260;28;20025;-84
2021/12/12 03:54:37;;;;;;;8.23;2.20;;;1.10;99.90;;;;;;5059256;28;20166;-83
2021/12/12 03:57:05;;;;;;;7.40;1.58;;;1.10;99.90;;;;;;5068037;28;20029;-83
2021/12/12 03:59:30;;;;;;;6.50;2.00;;;1.10;99.90;;;;;;5045447;28;20028;-84
2021/12/12 04:01:57;;;;;;;9.63;2.85;;;1.10;99.90;;;;;;5037781;28;20022;-84
2021/12/12 04:04:39;;;;;;;7.57;1.65;;;1.10;99.90;;;;;;5039999;28;20032;-84
2021/12/12 04:07:11;;;;;;;11.05;2.10;;;1.20;99.90;;;;;;5043540;28;20025;-83
2021/12/12 04:09:37;;;;;;;3.95;1.73;;;1.20;99.90;;;;;;5031523;28;20051;-84
2021/12/12 04:12:06;;;;;;;3.70;1.48;;;1.20;99.90;;;;;;5057899;28;20029;-84
2021/12/12 04:14:31;;;;;;;9.18;1.75;;;1.20;99.90;;;;;;5025072;28;20514;-83
2021/12/12 04:17:02;;;;;;;6.35;1.92;;;1.30;99.90;;;;;;5024168;28;20123;-84
2021/12/12 04:19:28;;;;;;;6.80;1.60;;;1.30;99.90;;;;;;5026334;28;20032;-83
2021/12/12 04:21:55;;;;;;;6.70;1.83;;;1.30;99.90;;;;;;5050203;28;20036;-84
2021/12/12 04:24:32;;;;;;;8.70;2.15;;;1.30;99.90;;;;;;5048173;28;20025;-83
2021/12/12 04:26:59;;;;;;;8.90;1.95;;;1.40;99.90;;;;;;5072555;28;20120;-83
2021/12/12 04:29:28;;;;;;;5.35;1.98;;;1.40;99.90;;;;;;5059451;28;20021;-83
2021/12/12 04:31:57;;;;;;;9.20;1.73;;;1.40;99.90;;;;;;5035964;28;20031;-83
2021/12/12 04:34:29;;;;;;;2.85;1.48;;;1.40;99.90;;;;;;5044699;28;20043;-83
2021/12/12 04:36:56;;;;;;;4.32;1.77;;;1.40;99.90;;;;;;5055026;28;20495;-83
2021/12/12 04:39:26;;;;;;;9.35;1.77;;;1.40;99.90;;;;;;5060235;28;20028;-84
2021/12/12 04:41:54;;;;;;;;;;;1.50;99.90;;;;;;5067743;28;20021;-83
2021/12/12 04:44:31;;;;;;;7.40;1.83;;;1.50;99.90;;;;;;5046776;28;19916;-83
2021/12/12 04:50:35;;;;;;;9.18;1.60;;;1.50;99.90;;;;;;5065718;28;20040;-83
2021/12/12 04:53:21;;;;;;;7.00;1.70;;;1.60;99.90;;;;;;5052854;28;20059;-83
2021/12/12 04:56:13;;;;;;;8.48;2.05;;;1.60;99.90;;;;;;5052579;28;20395;-83
2021/12/12 04:58:49;;;;;;;4.00;1.25;;;1.70;99.90;;;;;;5058630;28;20035;-84
2021/12/12 05:01:33;;;;;;;9.07;1.40;;;1.70;99.90;;;;;;5035520;28;20029;-83
2021/12/12 05:04:18;;;;;;;13.77;2.00;;;1.70;99.90;;;;;;5062806;28;20488;-83
2021/12/12 05:06:55;;;;;;;6.32;1.33;;;1.70;99.90;;;;;;5037173;28;20472;-83
2021/12/12 05:09:26;;;;;;;2.88;1.40;;;1.80;99.90;;;;;;5050361;28;20044;-83
2021/12/12 05:12:04;;;;;;;4.38;1.40;;;1.80;99.90;;;;;;5065671;28;20439;-83
2021/12/12 05:14:45;;;;;;;8.63;1.50;;;1.80;99.90;;;;;;5047474;28;20032;-83
2021/12/12 05:17:22;;;;;;;13.25;2.00;;;1.80;99.90;;;;;;5050696;28;20035;-83
2021/12/12 05:19:55;;;;;;;5.15;1.50;;;1.80;99.90;;;;;;5051042;28;20025;-83
2021/12/12 05:22:30;;;;;;;9.30;1.73;;;1.80;99.90;;;;;;5034260;28;20036;-83
2021/12/12 05:25:01;;;;;;;8.65;1.55;;;1.90;99.90;;;;;;5058909;28;20056;-83
2021/12/12 05:27:29;;;;;;;9.65;1.60;;;1.90;99.90;;;;;;5025272;28;20033;-83
2021/12/12 05:30:06;;;;;;;6.38;1.95;;;1.90;99.90;;;;;;5034558;28;20496;-83
2021/12/12 05:32:34;;;;;;;11.40;1.48;;;1.90;99.90;;;;;;5050807;28;20044;-83
2021/12/12 05:35:02;;;;;;;4.05;1.33;;;1.90;99.90;;;;;;5025513;28;20052;-83
2021/12/12 05:37:29;;;;;;;4.05;1.80;;;1.90;99.90;;;;;;5057595;28;20040;-83
2021/12/12 05:40:00;;;;;;;7.65;1.45;;;2.00;99.90;;;;;;5033926;28;20072;-83
2021/12/12 05:42:28;;;;;;;7.68;1.50;;;2.00;99.90;;;;;;5054097;28;20046;-83
2021/12/12 05:44:54;;;;;;;4.72;1.10;;;2.00;99.90;;;;;;5051706;28;20043;-83
2021/12/12 05:47:20;;;;;;;4.15;1.23;;;2.00;99.90;;;;;;5053646;28;20037;-83
2021/12/12 05:49:46;;;;;;;5.22;1.10;;;2.00;99.90;;;;;;5041864;28;20171;-84
2021/12/12 05:52:15;;;;;;;6.18;1.60;;;2.00;99.90;;;;;;5054178;28;20033;-83
2021/12/12 05:54:41;;;;;;;3.50;1.02;;;2.00;99.90;;;;;;5039224;28;20075;-84
2021/12/12 05:57:09;;;;;;;7.53;1.25;;;2.10;99.90;;;;;;5052127;28;20333;-84
2021/12/12 05:59:37;;;;;;;11.05;2.63;;;2.10;99.90;;;;;;5051692;28;20029;-84
2021/12/12 06:02:05;;;;;;;5.15;1.65;;;2.00;99.90;;;;;;5044848;28;20036;-84
2021/12/12 06:04:32;;;;;;;3.05;1.27;;;2.10;99.90;;;;;;5058494;28;20124;-83
2021/12/12 06:07:02;;;;;;;13.35;1.85;;;2.10;99.90;;;;;;5035478;28;20025;-84
2021/12/12 06:09:28;;;;;;;3.40;1.30;;;2.10;99.90;;;;;;5035349;28;20033;-84
2021/12/12 06:11:54;;;;;;;5.35;1.08;;;2.10;99.90;;;;;;5019111;28;20040;-84
2021/12/12 06:14:21;;;;;;;2.42;1.02;;;2.10;99.90;;;;;;5062559;28;20122;-83
2021/12/12 06:16:49;;;;;;;2.72;1.00;;;2.10;99.90;;;;;;5041497;28;20119;-84
2021/12/12 06:19:20;;;;;;;8.57;1.15;;;2.10;99.90;;;;;;5035802;28;20091;-84
2021/12/12 06:21:53;;;;;;;4.03;1.10;;;2.10;99.90;;;;;;5053569;28;20029;-84
2021/12/12 06:24:21;;;;;;;6.75;1.48;;;2.10;99.90;;;;;;5054987;28;20407;-84
2021/12/12 06:26:47;;;;;;;9.43;1.55;;;2.10;99.90;;;;;;5021895;28;20082;-84
2021/12/12 06:29:13;;;;;;;3.85;0.98;;;2.10;99.90;;;;;;5042897;28;20032;-84
2021/12/12 06:31:42;;;;;;;7.45;1.33;;;2.10;99.90;;;;;;5074484;28;20024;-84
2021/12/12 06:34:10;;;;;;;2.33;1.23;;;2.10;99.90;;;;;;5045920;28;20033;-84
2021/12/12 06:36:36;;;;;;;13.50;1.90;;;2.20;99.90;;;;;;5039837;28;20075;-84
2021/12/12 06:39:07;;;;;;;6.80;1.33;;;2.10;99.90;;;;;;5021335;28;20430;-84
2021/12/12 06:41:35;;;;;;;7.78;2.17;;;2.20;99.90;;;;;;5054821;28;20029;-84
2021/12/12 06:44:03;;;;;;;7.65;1.33;;;2.20;99.90;;;;;;5053491;28;20568;-85
2021/12/12 06:46:30;;;;;;;5.97;1.35;;;2.20;99.90;;;;;;5054047;28;20183;-84
2021/12/12 06:48:57;;;;;;;4.50;1.50;;;2.20;99.90;;;;;;5056793;28;20033;-85
2021/12/12 06:51:26;;;;;;;5.47;1.70;;;2.20;99.90;;;;;;5058040;28;20033;-85
2021/12/12 06:53:52;;;;;;;5.22;1.85;;;2.20;99.90;;;;;;5060539;28;20052;-84
2021/12/12 06:56:19;;;;;;;4.53;1.40;;;2.10;99.90;;;;;;5052985;28;20070;-83
2021/12/12 06:58:48;;;;;;;6.00;1.55;;;2.10;99.90;;;;;;5032999;28;20036;-84
2021/12/12 07:01:17;;;;;;;6.35;0.82;;;2.10;99.90;;;;;;5032733;28;20376;-84
2021/12/12 07:03:44;;;;;;;6.05;1.30;;;2.10;99.90;;;;;;5017619;28;20029;-84
2021/12/12 07:06:12;;;;;;;9.95;1.42;;;2.20;99.90;;;;;;5032239;28;20060;-83
2021/12/12 07:08:38;;;;;;;3.30;1.33;;;2.20;99.90;;;;;;5033859;28;20044;-83
2021/12/12 07:11:05;;;;;;;5.70;0.98;;;2.20;99.90;;;;;;5032581;28;20037;-84
2021/12/12 07:13:32;;;;;;;4.32;1.73;;;2.20;99.90;;;;;;5032470;28;20148;-84
2021/12/12 07:15:59;;;;;;;6.20;1.83;;;2.20;99.90;;;;;;5048168;28;20381;-83
2021/12/12 07:18:29;;;;;;;5.20;1.80;;;2.20;99.90;;;;;;5050569;28;20082;-83
2021/12/12 07:21:00;;;;;;;9.23;1.60;;;2.20;99.90;;;;;;5040467;28;20033;-83
2021/12/12 07:23:27;;;;;;;8.30;2.50;;;2.30;99.90;;;;;;5050576;28;20479;-83
2021/12/12 07:25:53;;;;;;;4.55;1.42;;;2.30;99.90;;;;;;5015862;28;20025;-83
2021/12/12 07:28:19;;;;;;;3.95;1.73;;;2.30;99.90;;;;;;5048920;28;20116;-83
2021/12/12 07:30:45;;;;;;;12.43;1.70;;;2.40;99.90;;;;;;5031932;28;20127;-83
2021/12/12 07:33:12;;;;;;;6.32;1.25;;;2.40;99.90;;;;;;5031781;28;20119;-82
2021/12/12 07:35:42;;;;;;;3.13;1.27;;;2.40;99.90;;;;;;5031430;28;20101;-83
2021/12/12 07:38:11;;;;;;;7.30;2.10;;;2.40;99.90;;;;;;5032220;28;20029;-83
2021/12/12 07:40:37;;;;;;;5.18;1.20;;;2.40;99.90;;;;;;5032329;28;20066;-84
2021/12/12 07:43:04;;;;;;;5.30;1.70;;;2.50;99.90;;;;;;5038197;28;20059;-84
2021/12/12 07:45:31;;;;;;;4.07;1.58;;;2.40;99.90;;;;;;5056021;28;20659;-84
2021/12/12 07:47:57;;;;;;;7.40;1.70;;;2.50;99.90;;;;;;5049202;28;20029;-82
2021/12/12 07:50:26;;;;;;;10.60;1.48;;;2.50;99.90;;;;;;5047435;28;20526;-84
2021/12/12 07:52:53;;;;;;;10.38;1.30;;;2.50;99.90;;;;;;5051466;28;20029;-82
2021/12/12 07:55:19;;;;;;;10.75;1.73;;;2.50;99.90;;;;;;5058955;28;20501;-82
2021/12/12 07:57:45;;;;;;;12.93;1.80;;;2.50;99.90;;;;;;5051859;28;20027;-83
2021/12/12 08:00:16;;;;;;;5.78;1.40;;;2.50;99.90;;;;;;5051984;28;20040;-83
2021/12/12 08:02:43;;;;;;;6.15;1.50;;;2.60;99.90;;;;;;5035903;28;20588;-83
2021/12/12 08:05:11;;;;;;;9.18;1.92;;;2.50;99.90;;;;;;5053102;28;20032;-83
2021/12/12 08:07:40;;;;;;;3.53;1.60;;;2.60;99.90;;;;;;5035713;28;20052;-82
2021/12/12 08:10:08;;;;;;;4.97;1.20;;;2.60;99.90;;;;;;5035669;28;20111;-83
2021/12/12 08:12:35;;;;;;;6.35;1.15;;;2.60;99.90;;;;;;5058802;28;20039;-84
2021/12/12 08:15:06;;;;;;;5.00;1.20;;;2.60;99.90;;;;;;5054959;28;20044;-83
2021/12/12 08:17:32;;;;;;;11.07;1.30;;;2.70;99.90;;;;;;5053623;28;20028;-83
2021/12/12 08:20:03;;;;;;;7.90;2.05;;;2.70;99.90;;;;;;5035263;28;20032;-84
2021/12/12 08:22:29;;;;;;;;;;;2.70;99.90;;;;;;5050090;28;20103;-83
2021/12/12 08:24:58;;;;;;;8.05;1.50;;;2.70;99.90;;;;;;5051602;28;19916;-83
2021/12/12 08:27:25;;;;;;;13.17;2.77;;;2.70;99.90;;;;;;5034472;28;20064;-83
2021/12/12 08:29:51;;;;;;;12.52;2.88;;;2.80;99.90;;;;;;5034810;28;20280;-83
2021/12/12 08:32:18;;;;;;;4.28;1.85;;;2.80;99.90;;;;;;5025149;28;20594;-83
2021/12/12 08:34:43;;;;;;;6.93;2.28;;;2.80;99.90;;;;;;5044332;28;20119;-83
2021/12/12 08:37:09;;;;;;;13.52;2.17;;;2.80;99.90;;;;;;5034644;28;20120;-83
2021/12/12 08:39:36;;;;;;;3.13;1.40;;;2.80;99.90;;;;;;5038701;28;21583;-83
2021/12/12 08:42:04;;;;;;;8.63;2.00;;;2.90;99.90;;;;;;5034670;28;20029;-83
2021/12/12 08:44:31;;;;;;;4.20;1.40;;;2.80;99.90;;;;;;5033499;28;20029;-83
2021/12/12 08:46:59;;;;;;;5.68;1.33;;;2.90;99.90;;;;;;5035073;28;20033;-83
2021/12/12 08:49:33;;;;;;;9.63;1.58;;;2.90;99.90;;;;;;5034695;28;20124;-83
2021/12/12 08:52:23;;;;;;;3.80;1.80;;;2.90;99.90;;;;;;5035939;28;20522;-82
2021/12/12 08:54:50;;;;;;;;;;;3.00;99.90;;;;;;5052559;28;20434;-84
2021/12/12 08:57:33;;;;;;;6.97;1.55;;;2.90;99.90;;;;;;5051420;28;19905;-83
2021/12/12 09:00:03;;;;;;;3.55;1.42;;;2.90;99.90;;;;;;5040883;28;20029;-84
2021/12/12 09:02:29;;;;;;;7.80;2.08;;;3.00;99.90;;;;;;5037080;28;20028;-84
2021/12/12 09:05:01;;;;;;;7.38;2.20;;;3.00;99.90;;;;;;5035572;28;20056;-83
2021/12/12 09:07:35;;;;;;;8.45;2.70;;;3.10;99.90;;;;;;5052055;28;20029;-83
2021/12/12 09:10:12;;;;;;;11.63;2.97;;;3.10;99.90;;;;;;5053088;28;20549;-83
2021/12/12 09:13:02;;;;;;;6.78;2.67;;;3.20;99.90;;;;;;5050954;28;20039;-84
2021/12/12 09:15:50;;;;;;;8.70;2.55;;;3.30;99.90;;;;;;5034255;28;20029;-83
2021/12/12 09:18:20;;;;;;;11.13;2.63;;;3.30;99.90;;;;;;5055139;28;20032;-85
2021/12/12 09:20:58;;;;;;;5.60;1.70;;;3.40;99.90;;;;;;5053245;28;20096;-85
2021/12/12 09:23:29;;;;;;;8.65;2.08;;;3.40;99.90;;;;;;5048190;28;20418;-85
2021/12/12 09:26:21;;;;;;;6.30;2.15;;;3.40;99.90;;;;;;5019553;28;20108;-86
2021/12/12 09:28:56;;;;;;;8.27;1.77;;;3.50;99.90;;;;;;5039091;28;20032;-85
2021/12/12 09:31:31;;;;;;;6.85;1.48;;;3.50;99.90;;;;;;5042670;28;20431;-85
2021/12/12 09:34:04;;;;;;;8.00;1.80;;;3.50;99.90;;;;;;5050649;28;20095;-84
2021/12/12 09:36:35;;;;;;;3.70;1.52;;;3.50;99.90;;;;;;5049829;28;20087;-85
2021/12/12 09:39:00;;;;;;;7.78;2.25;;;3.60;99.90;;;;;;5060528;28;20049;-85
2021/12/12 09:41:58;;;;;;;7.60;2.03;;;3.50;99.90;;;;;;5065548;28;20124;-84
2021/12/12 09:44:39;;;;;;;7.68;1.40;;;3.50;99.90;;;;;;5054221;28;20021;-85
2021/12/12 09:47:35;;;;;;;7.05;1.65;;;3.50;99.90;;;;;;5071431;28;20038;-85
2021/12/12 09:53:43;;;;;;;5.47;1.50;;;3.40;99.90;;;;;;5053093;28;20400;-85
2021/12/12 09:56:38;;;;;;;3.85;1.65;;;3.50;99.90;;;;;;5067668;28;20447;-84
2021/12/12 09:59:44;;;;;;;9.57;2.03;;;3.50;99.90;;;;;;5025133;28;20036;-85
2021/12/12 10:02:14;;;;;;;6.88;1.90;;;3.60;99.90;;;;;;5047000;28;20053;-87
2021/12/12 10:05:03;;;;;;;4.45;1.80;;;3.60;99.90;;;;;;5055081;28;20024;-86
2021/12/12 10:07:51;;;;;;;3.83;1.35;;;3.60;99.90;;;;;;5062045;28;20086;-86
2021/12/12 10:10:31;;;;;;;7.03;1.70;;;3.70;99.90;;;;;;5057816;28;20031;-84
2021/12/12 10:13:21;;;;;;;4.68;1.73;;;3.70;99.90;;;;;;5056429;28;20130;-85
2021/12/12 10:15:56;;;;;;;14.90;2.10;;;3.70;99.90;;;;;;5086061;28;20525;-85
2021/12/12 10:18:47;;;;;;;3.67;1.75;;;3.70;99.90;;;;;;5057059;28;20071;-84
2021/12/12 10:21:21;;;;;;;10.98;2.47;;;3.80;99.90;;;;;;5056237;28;20044;-85
2021/12/12 10:23:56;;;;;;;15.48;5.22;;;3.80;99.90;;;;;;5041730;28;20040;-85
2021/12/12 10:26:34;;;;;;;12.32;4.65;;;3.90;99.90;;;;;;5058009;28;20553;-84
2021/12/12 10:29:12;;;;;;;9.27;3.53;;;3.90;99.90;;;;;;5049933;28;20484;-85
2021/12/12 10:32:01;;;;;;;11.13;2.88;;;4.00;99.90;;;;;;5049950;28;20025;-84
2021/12/12 10:34:33;;;;;;;5.38;1.92;;;4.10;99.90;;;;;;5049471;28;20422;-84
2021/12/12 10:37:01;;;;;;;11.73;2.67;;;4.10;99.90;;;;;;5057123;28;20032;-84
2021/12/12 10:39:52;;;;;;;8.20;1.98;;;4.10;99.90;;;;;;5056407;28;20051;-85
2021/12/12 10:42:23;;;;;;;;;;;4.10;99.90;;;;;;5049279;28;20021;-84
2021/12/12 10:44:55;;;;;;;6.70;1.50;;;4.20;99.90;;;;;;5033415;28;20276;-85
2021/12/12 10:47:36;;;;;;;2.80;1.95;;;4.30;99.90;;;;;;5047987;28;20040;-84
2021/12/12 10:50:16;;;;;;;5.18;1.80;;;4.30;99.90;;;;;;5056139;28;20017;-84
2021/12/12 10:53:04;;;;;;;6.95;2.22;;;4.40;99.90;;;;;;5039970;28;20055;-85
2021/12/12 10:55:34;;;;;;;2.65;1.48;;;4.40;99.90;;;;;;5029492;28;20436;-84
2021/12/12 10:58:07;;;;;;;4.22;1.67;;;4.50;99.90;;;;;;5044049;28;20036;-84
2021/12/12 11:00:39;;;;;;;8.95;2.42;;;4.50;99.90;;;;;;5049348;28;20025;-84
2021/12/12 11:03:10;;;;;;;5.90;1.98;;;4.50;99.90;;;;;;5033086;28;20040;-85
2021/12/12 11:05:52;;;;;;;8.05;2.53;;;4.40;99.90;;;;;;5032332;28;20025;-84
2021/12/12 11:08:31;;;;;;;5.50;2.40;;;4.50;99.90;;;;;;5049011;28;20056;-85
2021/12/12 11:11:00;;;;;;;6.22;2.05;;;4.50;99.90;;;;;;5049117;28;20483;-84
2021/12/12 11:13:32;;;;;;;10.82;2.47;;;4.50;99.90;;;;;;5032679;28;20090;-84
2021/12/12 11:16:17;;;;;;;11.55;2.45;;;4.50;99.90;;;;;;5034644;28;20060;-85
2021/12/12 11:18:48;;;;;;;4.28;2.30;;;4.60;99.90;;;;;;5052382;28;20539;-85
2021/12/12 11:21:26;;;;;;;6.95;2.35;;;4.60;99.90;;;;;;5057318;28;20025;-85
2021/12/12 11:23:51;;;;;;;16.27;3.53;;;4.60;99.90;;;;;;5053183;28;20025;-84
2021/12/12 11:26:52;;;;;;;15.52;4.20;;;4.50;99.90;;;;;;5052897;28;20082;-84
2021/12/12 11:29:24;;;;;;;15.48;2.70;;;4.50;99.90;;;;;;5049774;28;20056;-84
2021/12/12 11:31:58;;;;;;;9.40;2.47;;;4.40;99.90;;;;;;5054117;28;20029;-84
2021/12/12 11:34:25;;;;;;;5.65;2.47;;;4.40;99.90;;;;;;5036415;28;20457;-84
2021/12/12 11:37:05;;;;;;;12.77;3.10;;;4.40;99.90;;;;;;5044466;28;20059;-84
2021/12/12 11:40:05;;;;;;;15.80;2.90;;;4.40;99.90;;;;;;5052862;28;20028;-85
2021/12/12 11:42:38;;;;;;;6.75;2.70;;;4.40;99.90;;;;;;5052811;28;20583;-85
2021/12/12 11:45:22;;;;;;;14.60;3.47;;;4.40;99.90;;;;;;5052672;28;20060;-85
2021/12/12 11:47:54;;;;;;;8.52;4.43;;;4.50;99.90;;;;;;5052425;28;20079;-84
2021/12/12 11:50:31;;;;;;;5.60;2.30;;;4.50;99.90;;;;;;5052501;28;20025;-84
2021/12/12 11:53:23;;;;;;;9.20;2.17;;;4.50;99.90;;;;;;5032761;28;20021;-85
2021/12/12 11:56:10;;;;;;;8.70;2.33;;;4.60;99.90;;;;;;5049120;28;20078;-85
2021/12/12 11:58:38;;;;;;;8.80;2.42;;;4.60;99.90;;;;;;5053224;28;20029;-84
2021/12/12 12:01:08;;;;;;;12.85;2.33;;;4.60;99.90;;;;;;5052553;28;20076;-84
2021/12/12 12:04:12;;;;;;;5.95;2.45;;;4.50;99.90;;;;;;5052140;28;20091;-84
2021/12/12 12:07:05;;;;;;;7.03;1.98;;;4.50;99.90;;;;;;5054721;28;20025;-84
2021/12/12 12:09:37;;;;;;;6.55;2.08;;;4.50;99.90;;;;;;5052539;28;20492;-83
2021/12/12 12:12:26;;;;;;;6.22;2.40;;;4.50;99.90;;;;;;5052579;28;20029;-81
2021/12/12 12:15:29;;;;;;;5.03;2.17;;;4.60;99.90;;;;;;5072181;28;20121;-82
2021/12/12 12:18:17;;;;;;;10.57;3.00;;;4.70;99.90;;;;;;5064305;28;20036;-82
2021/12/12 12:21:05;;;;;;;8.48;2.63;;;4.70;99.90;;;;;;5071926;28;20024;-81
2021/12/12 12:24:10;;;;;;;6.15;2.58;;;4.70;99.90;;;;;;5032509;28;20030;-82
2021/12/12 12:26:50;;;;;;;6.32;2.40;;;4.70;99.90;;;;;;5039612;28;20415;-82
2021/12/12 12:29:32;;;;;;;5.05;2.60;;;4.70;99.90;;;;;;5036663;28;20570;-82
2021/12/12 12:32:44;;;;;;;6.28;2.17;;;4.80;99.90;;;;;;5051712;28;20029;-83
2021/12/12 12:35:47;;;;;;;4.97;2.15;;;4.80;99.90;;;;;;5057019;28;20043;-83
2021/12/12 12:38:47;;;;;;;6.57;2.28;;;4.90;99.90;;;;;;5088466;23;20029;-87
2021/12/12 12:41:31;;;;;;;7.43;1.92;;;5.00;99.90;;;;;;5064300;28;20032;-86
2021/12/12 12:44:54;;;;;;;10.32;2.05;;;5.00;99.90;;;;;;5071516;28;20031;-86
2021/12/12 12:47:41;;;;;;;5.40;2.00;;;5.00;99.90;;;;;;5012200;28;20025;-86
2021/12/12 12:50:31;;;;;;;5.07;1.83;;;5.00;99.90;;;;;;4996825;28;20057;-86
2021/12/12 12:53:16;;;;;;;5.53;1.92;;;5.00;99.90;;;;;;5052788;28;20063;-86
2021/12/12 12:56:32;;;;;;;6.40;2.20;;;5.10;99.90;;;;;;5054496;28;20052;-87
2021/12/12 12:59:36;;;;;;;3.05;1.60;;;5.10;99.90;;;;;;5050434;28;20056;-86
2021/12/12 13:02:18;;;;;;;6.75;2.15;;;5.00;99.90;;;;;;5057105;28;20478;-86
2021/12/12 13:05:05;;;;;;;7.60;2.05;;;5.00;99.90;;;;;;5084625;28;20031;-87
2021/12/12 13:07:34;;;;;;;6.45;2.13;;;5.00;99.90;;;;;;5055180;28;20021;-86
2021/12/12 13:10:07;;;;;;;6.20;1.88;;;5.00;99.90;;;;;;5056560;28;20036;-87
2021/12/12 13:13:12;;;;;;;6.40;2.33;;;5.00;99.90;;;;;;5055216;28;20448;-86
2021/12/12 13:15:56;;;;;;;5.18;2.35;;;5.00;99.90;;;;;;5053999;28;20027;-85
2021/12/12 13:18:35;;;;;;;5.00;1.90;;;4.90;99.90;;;;;;5045809;28;20037;-87
2021/12/12 13:21:51;;;;;;;4.68;2.05;;;4.90;99.90;;;;;;5055583;28;20025;-85
2021/12/12 13:24:42;;;;;;;8.43;1.90;;;4.80;99.90;;;;;;5029969;28;20039;-87
2021/12/12 13:28:07;;;;;;;6.10;3.20;;;4.80;99.90;;;;;;5053775;28;20643;-86
2021/12/12 13:30:25;;;;;;;12.70;2.80;;;4.70;99.90;;;;;;5058793;28;20079;-86
2021/12/12 13:33:05;;;;;;;5.28;2.20;;;4.70;99.90;;;;;;5090153;28;20043;-86
2021/12/12 13:35:48;;;;;;;4.40;2.05;;;4.70;99.90;;;;;;5091375;28;20035;-86
2021/12/12 13:38:22;;;;;;;4.43;1.92;;;4.70;99.90;;;;;;5071661;28;20520;-85
2021/12/12 13:41:06;;;;;;;4.97;2.20;;;4.60;99.90;;;;;;5051973;28;20112;-85
2021/12/12 13:43:52;;;;;;;6.75;2.05;;;4.60;99.90;;;;;;5055061;28;20024;-86
2021/12/12 13:46:18;;;;;;;5.60;2.28;;;4.60;99.90;;;;;;5050991;28;20454;-87
2021/12/12 13:49:17;;;;;;;7.22;2.28;;;4.50;99.90;;;;;;5067182;28;20032;-85
2021/12/12 13:52:00;;;;;;;9.32;2.30;;;4.50;99.90;;;;;;5080278;28;20021;-86